Time;durP1;ratioP1;P1;durP2;ratioP2;P2;SDS_P1;SDS_P2;PMS_P1;PMS_P2;Temp;Humidity;BMP_temperature;BMP_pressure;BME280_temperature;BME280_humidity;BME280_pressure;Samples;Min_cycle;Max_cycle;Signal;HPM_P1;HPM_P2
2022/03/28 00:01:46;;;;;;;11.40;10.40;;;7.00;87.50;;;;;;4908136;29;20044;-68
2022/03/28 00:04:12;;;;;;;11.02;9.93;;;7.10;87.60;;;;;;4916380;29;20110;-68
2022/03/28 00:06:38;;;;;;;11.02;10.00;;;7.10;87.70;;;;;;4926464;29;20051;-68
2022/03/28 00:09:05;;;;;;;12.05;10.82;;;7.10;87.70;;;;;;4931185;29;20047;-68
2022/03/28 00:11:32;;;;;;;17.30;10.63;;;7.20;87.70;;;;;;4931698;29;20134;-68
2022/03/28 00:13:58;;;;;;;11.57;10.48;;;7.20;87.80;;;;;;4928310;29;20042;-68
2022/03/28 00:16:23;;;;;;;11.60;10.50;;;7.30;87.80;;;;;;4924880;29;20043;-68
2022/03/28 00:18:49;;;;;;;11.13;10.13;;;7.30;87.80;;;;;;4932081;29;20051;-68
2022/03/28 00:21:15;;;;;;;11.35;10.23;;;7.40;87.90;;;;;;4924936;29;20477;-68
2022/03/28 00:23:40;;;;;;;12.88;10.88;;;7.40;87.90;;;;;;4923789;29;20063;-68
2022/03/28 00:26:06;;;;;;;11.30;10.40;;;7.40;87.80;;;;;;4926009;29;20048;-68
2022/03/28 00:28:31;;;;;;;13.07;10.25;;;7.40;87.80;;;;;;4931779;29;20138;-68
2022/03/28 00:30:57;;;;;;;11.65;10.30;;;7.50;87.80;;;;;;4930818;29;20048;-68
2022/03/28 00:33:23;;;;;;;16.08;10.65;;;7.50;87.70;;;;;;4931622;29;20126;-68
2022/03/28 00:35:48;;;;;;;17.05;10.70;;;7.50;87.60;;;;;;4923496;29;20051;-68
2022/03/28 00:38:14;;;;;;;10.70;9.77;;;7.40;87.60;;;;;;4913062;29;20048;-68
2022/03/28 00:40:40;;;;;;;10.93;9.93;;;7.40;87.50;;;;;;4922894;29;20713;-67
2022/03/28 00:43:08;;;;;;;11.88;10.68;;;7.40;87.50;;;;;;4930821;29;20067;-68
2022/03/28 00:45:38;;;;;;;14.25;10.43;;;7.40;87.50;;;;;;4920366;29;20044;-68
2022/03/28 00:48:05;;;;;;;15.35;10.00;;;7.40;87.60;;;;;;4932069;29;20043;-68
2022/03/28 00:50:32;;;;;;;12.18;10.27;;;7.40;87.50;;;;;;4924193;29;20505;-68
2022/03/28 00:52:58;;;;;;;12.20;9.93;;;7.40;87.30;;;;;;4925025;29;20136;-68
2022/03/28 00:55:24;;;;;;;11.30;10.30;;;7.30;87.30;;;;;;4925241;29;20044;-68
2022/03/28 00:57:50;;;;;;;13.57;9.77;;;7.30;87.40;;;;;;4927453;29;20043;-69
2022/03/28 01:00:16;;;;;;;11.52;10.45;;;7.30;87.40;;;;;;4929302;29;20063;-69
2022/03/28 01:02:43;;;;;;;11.80;9.68;;;7.40;87.40;;;;;;4927110;29;20541;-67
2022/03/28 01:05:10;;;;;;;10.55;9.55;;;7.40;87.50;;;;;;4928733;29;20079;-68
2022/03/28 01:07:38;;;;;;;11.30;10.23;;;7.40;87.50;;;;;;4929574;29;20044;-68
2022/03/28 01:10:04;;;;;;;11.40;10.27;;;7.40;87.40;;;;;;4929771;29;20051;-68
2022/03/28 01:12:32;;;;;;;11.27;10.07;;;7.50;87.40;;;;;;4931039;29;20039;-68
2022/03/28 01:14:58;;;;;;;10.68;9.68;;;7.50;87.30;;;;;;4930427;29;20050;-68
2022/03/28 01:20:09;;;;;;;10.80;9.70;;;7.40;87.10;;;;;;4928032;29;20386;-68
2022/03/28 01:22:35;;;;;;;10.88;9.98;;;7.40;87.20;;;;;;4930119;29;20454;-68
2022/03/28 01:25:04;;;;;;;13.75;9.35;;;7.40;87.30;;;;;;4929097;29;20048;-67
2022/03/28 01:27:30;;;;;;;10.75;9.73;;;7.50;87.20;;;;;;4929453;29;20531;-68
2022/03/28 01:29:56;;;;;;;11.73;9.35;;;7.50;87.10;;;;;;4929824;29;20047;-68
2022/03/28 01:32:22;;;;;;;10.73;9.70;;;7.50;87.10;;;;;;4928638;29;20036;-67
2022/03/28 01:34:48;;;;;;;12.70;9.60;;;7.50;87.00;;;;;;4927565;29;20047;-68
2022/03/28 01:37:13;;;;;;;10.55;9.20;;;7.50;87.00;;;;;;4929178;29;20413;-67
2022/03/28 01:39:39;;;;;;;11.13;9.15;;;7.50;87.00;;;;;;4912684;29;20118;-68
2022/03/28 01:42:05;;;;;;;18.58;10.65;;;7.50;87.00;;;;;;4898717;29;20056;-69
2022/03/28 01:44:31;;;;;;;10.95;9.85;;;7.60;87.00;;;;;;4928990;29;20044;-68
2022/03/28 01:46:56;;;;;;;11.43;9.32;;;7.60;86.90;;;;;;4930201;29;20039;-68
2022/03/28 01:49:22;;;;;;;12.38;9.70;;;7.60;86.80;;;;;;4929926;29;20073;-68
2022/03/28 01:51:49;;;;;;;10.75;9.75;;;7.60;86.70;;;;;;4929117;29;20040;-68
2022/03/28 01:54:16;;;;;;;10.40;9.38;;;7.60;86.70;;;;;;4928007;29;20051;-68
2022/03/28 01:56:42;;;;;;;12.48;9.63;;;7.60;86.60;;;;;;4930767;29;20044;-68
2022/03/28 01:59:09;;;;;;;10.43;9.40;;;7.60;86.60;;;;;;4933066;29;20039;-68
2022/03/28 02:01:35;;;;;;;11.90;9.43;;;7.60;86.50;;;;;;4930623;29;20044;-68
2022/03/28 02:04:02;;;;;;;11.40;10.18;;;7.60;86.40;;;;;;4932912;29;20082;-68
2022/03/28 02:06:28;;;;;;;11.65;9.98;;;7.60;86.40;;;;;;4933446;29;20859;-68
2022/03/28 02:08:54;;;;;;;10.27;9.20;;;7.60;86.30;;;;;;4932905;29;20179;-69
2022/03/28 02:11:20;;;;;;;11.20;9.45;;;7.60;86.30;;;;;;4932939;29;20135;-68
2022/03/28 02:13:46;;;;;;;11.38;9.80;;;7.60;86.30;;;;;;4930623;29;20048;-67
2022/03/28 02:16:12;;;;;;;10.48;9.48;;;7.60;86.20;;;;;;4916217;29;20052;-67
2022/03/28 02:18:40;;;;;;;11.40;9.25;;;7.70;86.10;;;;;;4931801;29;20413;-67
2022/03/28 02:21:06;;;;;;;11.75;10.52;;;7.70;86.00;;;;;;4932805;29;20444;-67
2022/03/28 02:23:32;;;;;;;11.02;9.27;;;7.60;86.00;;;;;;4932863;29;20126;-67
2022/03/28 02:25:58;;;;;;;9.52;8.73;;;7.60;85.90;;;;;;4915101;29;20042;-67
2022/03/28 02:28:23;;;;;;;10.60;9.40;;;7.60;85.90;;;;;;4933440;29;20051;-68
2022/03/28 02:30:49;;;;;;;12.18;8.93;;;7.60;85.90;;;;;;4931819;29;20055;-68
2022/03/28 02:33:15;;;;;;;12.40;9.38;;;7.60;85.90;;;;;;4932706;29;20050;-68
2022/03/28 02:35:41;;;;;;;10.75;9.52;;;7.60;85.90;;;;;;4930952;29;20126;-68
2022/03/28 02:38:07;;;;;;;13.85;9.40;;;7.50;85.80;;;;;;4933009;29;20348;-68
2022/03/28 02:40:33;;;;;;;10.70;9.52;;;7.50;85.80;;;;;;4932694;29;20417;-68
2022/03/28 02:43:00;;;;;;;13.18;9.45;;;7.50;85.80;;;;;;4932337;29;20408;-68
2022/03/28 02:45:28;;;;;;;11.38;9.25;;;7.60;85.70;;;;;;4930951;29;20179;-68
2022/03/28 02:47:54;;;;;;;9.90;9.00;;;7.50;85.70;;;;;;4930742;29;20119;-68
2022/03/28 02:50:19;;;;;;;9.85;8.82;;;7.50;85.60;;;;;;4932259;29;20134;-68
2022/03/28 02:52:45;;;;;;;9.40;8.50;;;7.40;85.40;;;;;;4932645;29;20583;-68
2022/03/28 02:55:11;;;;;;;8.98;8.13;;;7.30;85.30;;;;;;4931445;29;20047;-68
2022/03/28 02:57:37;;;;;;;11.57;9.07;;;7.30;85.30;;;;;;4932615;29;20043;-68
2022/03/28 03:00:07;;;;;;;9.75;8.75;;;7.20;85.20;;;;;;4931478;29;20136;-68
2022/03/28 03:02:34;;;;;;;12.80;8.95;;;7.20;85.30;;;;;;4930218;29;20078;-68
2022/03/28 03:04:59;;;;;;;14.88;10.27;;;7.10;85.30;;;;;;4928747;29;20129;-69
2022/03/28 03:07:25;;;;;;;9.48;8.60;;;7.10;85.30;;;;;;4929021;29;20071;-68
2022/03/28 03:09:51;;;;;;;10.05;8.50;;;7.10;85.30;;;;;;4931249;29;20050;-68
2022/03/28 03:12:16;;;;;;;12.38;9.80;;;7.10;85.40;;;;;;4932160;29;20044;-68
2022/03/28 03:14:42;;;;;;;10.15;9.32;;;7.10;85.40;;;;;;4931333;29;20073;-68
2022/03/28 03:17:08;;;;;;;9.93;8.93;;;7.00;85.50;;;;;;4931973;29;20032;-68
2022/03/28 03:19:34;;;;;;;10.13;9.13;;;7.00;85.50;;;;;;4931178;29;20107;-68
2022/03/28 03:22:00;;;;;;;13.00;10.10;;;7.00;85.70;;;;;;4930394;29;20757;-68
2022/03/28 03:24:25;;;;;;;11.60;9.32;;;7.00;85.70;;;;;;4932185;29;20083;-69
2022/03/28 03:26:51;;;;;;;10.35;9.18;;;7.10;85.70;;;;;;4928939;29;20075;-68
2022/03/28 03:29:16;;;;;;;11.57;9.77;;;7.10;85.80;;;;;;4931683;29;20036;-68
2022/03/28 03:31:42;;;;;;;10.20;9.27;;;7.10;85.70;;;;;;4931763;29;20086;-69
2022/03/28 03:34:07;;;;;;;12.60;10.20;;;7.10;85.70;;;;;;4929149;29;20043;-68
2022/03/28 03:36:33;;;;;;;10.30;9.40;;;7.00;85.80;;;;;;4929173;29;20572;-68
2022/03/28 03:38:59;;;;;;;12.27;11.13;;;7.00;85.80;;;;;;4931536;29;20051;-68
2022/03/28 03:41:25;;;;;;;12.75;11.55;;;7.10;85.90;;;;;;4930611;29;20074;-68
2022/03/28 03:43:50;;;;;;;14.07;10.57;;;7.10;85.80;;;;;;4931137;29;20391;-69
2022/03/28 03:46:16;;;;;;;12.40;10.73;;;7.10;85.80;;;;;;4931236;29;20059;-68
2022/03/28 03:48:42;;;;;;;11.93;10.60;;;7.10;85.80;;;;;;4931233;29;20036;-68
2022/03/28 03:51:08;;;;;;;13.13;11.40;;;7.00;85.60;;;;;;4930364;29;20512;-68
2022/03/28 03:53:34;;;;;;;11.52;10.07;;;7.00;85.80;;;;;;4930772;29;20535;-69
2022/03/28 03:55:59;;;;;;;12.55;10.23;;;7.00;85.90;;;;;;4930921;29;20400;-69
2022/03/28 03:58:26;;;;;;;11.75;10.65;;;7.10;85.90;;;;;;4930861;29;20134;-68
2022/03/28 04:00:51;;;;;;;11.55;10.27;;;7.00;85.90;;;;;;4926945;29;20052;-68
2022/03/28 04:03:17;;;;;;;13.80;10.02;;;7.00;86.00;;;;;;4930955;29;20046;-68
2022/03/28 04:05:43;;;;;;;10.45;9.35;;;7.00;86.10;;;;;;4928875;29;20048;-69
2022/03/28 04:08:08;;;;;;;10.82;9.82;;;6.90;86.10;;;;;;4914187;29;20075;-68
2022/03/28 04:10:35;;;;;;;11.23;10.13;;;6.90;86.10;;;;;;4930578;29;20086;-68
2022/03/28 04:13:02;;;;;;;11.48;9.93;;;6.80;86.20;;;;;;4926062;29;20048;-68
2022/03/28 04:15:28;;;;;;;11.63;10.27;;;6.70;86.20;;;;;;4930347;29;20043;-69
2022/03/28 04:17:53;;;;;;;10.07;9.00;;;6.80;86.30;;;;;;4929770;29;20039;-68
2022/03/28 04:20:19;;;;;;;9.75;8.73;;;6.90;86.20;;;;;;4930852;29;20095;-68
2022/03/28 04:22:48;;;;;;;10.00;9.05;;;6.70;86.10;;;;;;4929214;29;20627;-68
2022/03/28 04:25:14;;;;;;;8.75;7.90;;;6.70;86.20;;;;;;4929489;29;20102;-68
2022/03/28 04:27:41;;;;;;;8.18;7.50;;;6.60;86.30;;;;;;4913227;29;20071;-69
2022/03/28 04:30:09;;;;;;;8.40;7.60;;;6.60;86.40;;;;;;4929967;29;20043;-69
2022/03/28 04:32:36;;;;;;;8.60;7.90;;;6.60;86.10;;;;;;4930223;29;20055;-68
2022/03/28 04:35:06;;;;;;;9.25;8.55;;;6.50;86.30;;;;;;4925922;29;20393;-68
2022/03/28 04:37:36;;;;;;;8.85;8.05;;;6.40;86.40;;;;;;4928725;29;20055;-68
2022/03/28 04:40:04;;;;;;;7.20;6.60;;;6.50;86.40;;;;;;4929939;29;20532;-68
2022/03/28 04:42:30;;;;;;;7.20;6.60;;;6.50;86.40;;;;;;4929226;29;20580;-68
2022/03/28 04:44:56;;;;;;;8.85;7.97;;;6.40;86.40;;;;;;4929572;29;20123;-69
2022/03/28 04:47:22;;;;;;;8.93;8.02;;;6.40;86.20;;;;;;4932306;29;20090;-69
2022/03/28 04:49:48;;;;;;;8.07;7.47;;;6.30;86.30;;;;;;4929498;29;20078;-69
2022/03/28 04:52:13;;;;;;;7.60;7.03;;;6.30;86.40;;;;;;4921456;29;20084;-68
2022/03/28 04:54:39;;;;;;;7.07;6.47;;;6.30;86.50;;;;;;4916401;29;20898;-68
2022/03/28 04:57:05;;;;;;;9.32;6.70;;;6.30;86.50;;;;;;4918849;29;20100;-69
2022/03/28 04:59:32;;;;;;;7.22;6.53;;;6.40;86.60;;;;;;4929347;29;20039;-69
2022/03/28 05:01:59;;;;;;;7.57;6.93;;;6.40;86.60;;;;;;4928570;29;20048;-69
2022/03/28 05:04:25;;;;;;;7.65;6.95;;;6.40;86.70;;;;;;4922453;29;20051;-68
2022/03/28 05:06:51;;;;;;;7.97;7.28;;;6.40;86.70;;;;;;4915433;29;20124;-69
2022/03/28 05:09:17;;;;;;;7.32;6.63;;;6.40;86.60;;;;;;4913254;29;20127;-69
2022/03/28 05:11:43;;;;;;;7.72;7.05;;;6.40;86.70;;;;;;4920738;29;20474;-68
2022/03/28 05:14:09;;;;;;;6.70;6.10;;;6.30;86.70;;;;;;4929369;29;20130;-68
2022/03/28 05:16:35;;;;;;;7.85;7.25;;;6.40;86.70;;;;;;4920864;29;20076;-68
2022/03/28 05:19:00;;;;;;;8.23;7.30;;;6.40;86.70;;;;;;4909515;29;20059;-69
2022/03/28 05:21:26;;;;;;;7.25;6.55;;;6.40;86.70;;;;;;4912466;29;20142;-69
2022/03/28 05:23:51;;;;;;;7.80;7.10;;;6.40;86.90;;;;;;4915178;29;20036;-69
2022/03/28 05:26:17;;;;;;;7.88;7.22;;;6.40;86.80;;;;;;4926653;29;20044;-70
2022/03/28 05:28:42;;;;;;;8.15;7.43;;;6.40;86.90;;;;;;4913476;29;20048;-73
2022/03/28 05:31:08;;;;;;;9.15;8.25;;;6.50;87.10;;;;;;4933390;29;20090;-72
2022/03/28 05:33:34;;;;;;;8.18;7.38;;;6.60;87.00;;;;;;4934643;29;20044;-68
2022/03/28 05:35:59;;;;;;;9.63;8.68;;;6.60;86.90;;;;;;4916327;29;20047;-68
2022/03/28 05:38:25;;;;;;;8.50;7.63;;;6.60;87.00;;;;;;4917269;29;20528;-69
2022/03/28 05:40:51;;;;;;;9.13;8.23;;;6.60;87.20;;;;;;4915824;29;20055;-68
2022/03/28 05:43:17;;;;;;;8.85;7.95;;;6.70;87.30;;;;;;4917318;29;20494;-67
2022/03/28 05:45:43;;;;;;;9.55;8.20;;;6.80;87.30;;;;;;4902440;29;20044;-67
2022/03/28 05:48:09;;;;;;;10.27;8.02;;;6.90;87.10;;;;;;4934400;29;20501;-68
2022/03/28 05:50:35;;;;;;;8.07;7.28;;;6.90;87.00;;;;;;4934114;29;20102;-68
2022/03/28 05:53:00;;;;;;;9.02;8.15;;;6.90;86.80;;;;;;4928825;29;20485;-68
2022/03/28 05:55:26;;;;;;;9.15;7.50;;;6.90;86.70;;;;;;4925908;29;20051;-67
2022/03/28 05:57:52;;;;;;;7.80;7.10;;;6.80;86.60;;;;;;4934387;29;20040;-66
2022/03/28 06:00:18;;;;;;;9.38;7.60;;;6.80;86.80;;;;;;4932608;29;20039;-67
2022/03/28 06:02:44;;;;;;;9.73;7.47;;;6.80;86.70;;;;;;4910231;29;20051;-68
2022/03/28 06:05:13;;;;;;;9.10;8.18;;;6.80;86.60;;;;;;4936454;29;20056;-68
2022/03/28 06:07:40;;;;;;;9.10;8.07;;;6.80;86.60;;;;;;4927523;29;20058;-68
2022/03/28 06:10:05;;;;;;;8.20;7.35;;;6.70;86.70;;;;;;4916708;29;20048;-67
2022/03/28 06:12:31;;;;;;;8.57;7.75;;;6.70;86.60;;;;;;4915488;29;20048;-67
2022/03/28 06:14:57;;;;;;;13.15;9.85;;;6.70;86.60;;;;;;4923155;29;20044;-67
2022/03/28 06:17:25;;;;;;;9.77;8.80;;;6.70;86.70;;;;;;4919294;29;20138;-67
2022/03/28 06:19:51;;;;;;;6.20;5.65;;;6.70;86.70;;;;;;4931362;29;20148;-68
2022/03/28 06:22:17;;;;;;;9.38;8.35;;;7.10;88.90;;;;;;4933249;29;20051;-67
2022/03/28 06:24:43;;;;;;;12.73;7.65;;;7.30;87.40;;;;;;4933100;29;20044;-67
2022/03/28 06:27:09;;;;;;;8.93;7.53;;;7.20;86.80;;;;;;4924912;29;20049;-67
2022/03/28 06:29:35;;;;;;;8.50;7.63;;;7.20;86.50;;;;;;4915250;29;20048;-67
2022/03/28 06:32:00;;;;;;;7.95;7.15;;;7.10;86.40;;;;;;4916489;29;20403;-67
2022/03/28 06:34:26;;;;;;;8.27;7.18;;;7.10;86.10;;;;;;4904997;29;20052;-67
2022/03/28 06:36:51;;;;;;;7.90;7.20;;;6.90;85.90;;;;;;4931707;29;20043;-67
2022/03/28 06:39:17;;;;;;;9.10;8.20;;;6.80;85.90;;;;;;4915521;29;20048;-66
2022/03/28 06:41:43;;;;;;;10.55;9.45;;;6.70;86.00;;;;;;4917428;29;20130;-67
2022/03/28 06:44:11;;;;;;;10.15;8.85;;;6.70;86.00;;;;;;4920179;29;20071;-67
2022/03/28 06:46:38;;;;;;;9.55;8.10;;;6.60;86.10;;;;;;4908990;29;20052;-67
2022/03/28 06:49:04;;;;;;;8.80;7.78;;;6.60;86.20;;;;;;4925935;29;20072;-67
2022/03/28 06:51:29;;;;;;;8.75;7.65;;;6.60;86.20;;;;;;4917999;29;20076;-66
2022/03/28 06:53:55;;;;;;;8.82;7.90;;;6.60;86.20;;;;;;4903470;29;20059;-66
2022/03/28 06:56:21;;;;;;;8.10;7.30;;;6.60;86.20;;;;;;4926984;29;20052;-67
2022/03/28 06:58:46;;;;;;;8.85;7.97;;;6.50;86.30;;;;;;4913321;29;20477;-67
2022/03/28 07:01:12;;;;;;;9.35;8.45;;;6.60;86.50;;;;;;4923411;29;20460;-67
2022/03/28 07:03:38;;;;;;;8.93;8.13;;;6.60;86.60;;;;;;4933311;29;20051;-68
2022/03/28 07:06:04;;;;;;;9.88;8.88;;;6.70;86.60;;;;;;4931425;29;20059;-69
2022/03/28 07:08:29;;;;;;;9.57;8.57;;;6.70;86.50;;;;;;4919570;29;20127;-68
2022/03/28 07:10:55;;;;;;;11.80;8.73;;;6.70;86.60;;;;;;4924663;29;20054;-69
2022/03/28 07:13:22;;;;;;;11.02;8.07;;;6.80;86.70;;;;;;4914098;29;20075;-69
2022/03/28 07:15:48;;;;;;;9.15;8.25;;;6.90;86.60;;;;;;4928748;29;20162;-69
2022/03/28 07:18:14;;;;;;;9.63;8.27;;;6.90;86.60;;;;;;4916756;29;20587;-68
2022/03/28 07:20:43;;;;;;;9.25;8.35;;;7.00;86.60;;;;;;4932330;29;20168;-68
2022/03/28 07:23:09;;;;;;;8.63;7.68;;;7.00;86.70;;;;;;4923845;29;20130;-68
2022/03/28 07:25:36;;;;;;;8.63;7.82;;;7.00;86.40;;;;;;4932582;29;20089;-68
2022/03/28 07:28:09;;;;;;;9.07;8.18;;;6.90;86.20;;;;;;4930044;29;20107;-68
2022/03/28 07:30:35;;;;;;;8.77;7.85;;;7.00;86.30;;;;;;4918014;29;20067;-67
2022/03/28 07:33:02;;;;;;;8.10;7.40;;;7.00;86.30;;;;;;4914996;29;20098;-69
2022/03/28 07:35:29;;;;;;;7.93;7.10;;;7.10;86.50;;;;;;4913649;29;20119;-68
2022/03/28 07:37:55;;;;;;;9.05;8.20;;;7.20;86.30;;;;;;4915646;29;20531;-68
2022/03/28 07:40:21;;;;;;;7.53;6.57;;;7.20;86.20;;;;;;4923809;29;20111;-69
2022/03/28 07:42:47;;;;;;;7.55;6.75;;;7.30;86.10;;;;;;4896813;29;20052;-69
2022/03/28 07:45:14;;;;;;;8.77;7.35;;;7.20;86.10;;;;;;4913655;29;20055;-69
2022/03/28 07:47:40;;;;;;;8.68;7.05;;;7.30;86.10;;;;;;4919814;29;20048;-69
2022/03/28 07:50:07;;;;;;;8.88;6.72;;;7.30;86.00;;;;;;4917796;29;20044;-69
2022/03/28 07:52:33;;;;;;;8.27;7.40;;;7.40;85.90;;;;;;4915052;29;20138;-69
2022/03/28 07:55:00;;;;;;;7.88;6.80;;;7.40;85.80;;;;;;4929121;29;20563;-69
2022/03/28 07:57:26;;;;;;;7.82;6.93;;;7.40;85.80;;;;;;4935742;29;20119;-68
2022/03/28 07:59:52;;;;;;;7.78;7.00;;;7.40;85.60;;;;;;4928535;29;20047;-69
2022/03/28 08:02:18;;;;;;;8.13;7.32;;;7.40;85.50;;;;;;4919456;29;20047;-68
2022/03/28 08:04:44;;;;;;;7.63;6.93;;;7.40;85.50;;;;;;4931813;29;20056;-69
2022/03/28 08:07:11;;;;;;;8.38;7.57;;;7.40;85.50;;;;;;4932200;29;20122;-69
2022/03/28 08:09:38;;;;;;;8.52;7.50;;;7.40;85.50;;;;;;4915771;29;20450;-69
2022/03/28 08:12:05;;;;;;;9.23;8.05;;;7.60;85.60;;;;;;4921627;29;20047;-68
2022/03/28 08:14:31;;;;;;;8.60;7.15;;;7.60;85.50;;;;;;4902748;29;20054;-69
2022/03/28 08:16:56;;;;;;;7.22;6.53;;;7.60;85.50;;;;;;4925621;29;20051;-69
2022/03/28 08:19:23;;;;;;;7.30;6.60;;;7.60;85.50;;;;;;4918370;29;20341;-69
2022/03/28 08:21:49;;;;;;;6.40;5.80;;;7.70;85.40;;;;;;4920293;29;20047;-68
2022/03/28 08:24:15;;;;;;;7.32;5.82;;;7.70;85.20;;;;;;4932311;29;20269;-69
2022/03/28 08:26:40;;;;;;;6.60;6.00;;;7.70;85.10;;;;;;4931483;29;20055;-69
2022/03/28 08:29:06;;;;;;;6.80;6.20;;;7.70;84.90;;;;;;4931812;29;20493;-69
2022/03/28 08:31:32;;;;;;;6.15;5.55;;;7.70;84.90;;;;;;4914367;29;20497;-69
2022/03/28 08:33:58;;;;;;;7.32;6.53;;;7.70;84.70;;;;;;4935269;29;20043;-69
2022/03/28 08:36:24;;;;;;;6.20;5.60;;;7.70;84.60;;;;;;4947737;29;20055;-68
2022/03/28 08:38:49;;;;;;;9.65;5.47;;;7.80;84.50;;;;;;4916618;29;20040;-69
2022/03/28 08:41:18;;;;;;;6.78;6.10;;;7.80;84.40;;;;;;4914588;29;20508;-69
2022/03/28 08:43:43;;;;;;;7.43;6.25;;;7.90;84.30;;;;;;4931574;29;20110;-69
2022/03/28 08:46:10;;;;;;;7.18;6.47;;;7.80;84.00;;;;;;4931509;29;20051;-69
2022/03/28 08:48:40;;;;;;;7.32;6.53;;;7.80;83.90;;;;;;4912861;29;20160;-69
2022/03/28 08:51:07;;;;;;;9.73;7.15;;;7.80;83.90;;;;;;4931464;29;20568;-75
2022/03/28 08:53:33;;;;;;;6.28;5.68;;;7.80;83.70;;;;;;4931313;29;20211;-74
2022/03/28 08:55:58;;;;;;;8.25;6.55;;;7.70;83.60;;;;;;4931667;29;20127;-73
2022/03/28 08:58:24;;;;;;;10.35;6.93;;;7.70;83.70;;;;;;4931006;29;20054;-74
2022/03/28 09:00:50;;;;;;;9.38;8.02;;;7.90;83.80;;;;;;4930995;29;20071;-74
2022/03/28 09:03:15;;;;;;;10.25;8.80;;;7.90;83.60;;;;;;4931163;29;20043;-74
2022/03/28 09:05:47;;;;;;;8.73;7.55;;;7.80;83.20;;;;;;4932522;29;20135;-74
2022/03/28 09:08:12;;;;;;;10.85;9.35;;;7.80;83.30;;;;;;4890504;29;20055;-74
2022/03/28 09:10:44;;;;;;;8.63;7.78;;;7.90;83.30;;;;;;4920884;29;20059;-74
2022/03/28 09:13:11;;;;;;;9.33;6.80;;;7.90;83.30;;;;;;4935264;29;20436;-74
2022/03/28 09:15:55;;;;;;;7.68;6.82;;;8.00;83.30;;;;;;4903436;29;20417;-76
2022/03/28 09:18:26;;;;;;;8.23;7.38;;;8.10;83.40;;;;;;4889744;29;20048;-77
2022/03/28 09:20:58;;;;;;;7.28;6.57;;;8.10;83.30;;;;;;4907357;29;20710;-77
2022/03/28 09:23:36;;;;;;;10.20;9.20;;;8.10;83.20;;;;;;4899035;29;20516;-75
2022/03/28 09:26:08;;;;;;;9.88;8.88;;;8.10;83.20;;;;;;4903009;29;20072;-74
2022/03/28 09:28:49;;;;;;;10.43;8.10;;;8.20;83.20;;;;;;4917104;29;20036;-74
2022/03/28 09:31:30;;;;;;;8.80;7.65;;;8.20;82.80;;;;;;4897395;29;20056;-75
2022/03/28 09:34:19;;;;;;;9.52;8.60;;;8.10;82.70;;;;;;4917004;29;20114;-76
2022/03/28 09:36:56;;;;;;;8.93;8.13;;;8.00;82.30;;;;;;4901993;29;20119;-75
2022/03/28 09:39:29;;;;;;;10.48;9.07;;;8.00;82.80;;;;;;4929801;29;20080;-74
2022/03/28 09:42:02;;;;;;;10.60;9.25;;;8.00;82.80;;;;;;4905694;29;20192;-74
2022/03/28 09:44:50;;;;;;;12.10;9.95;;;8.10;82.90;;;;;;4912546;29;20627;-75
2022/03/28 09:47:25;;;;;;;10.63;9.63;;;8.10;82.90;;;;;;4893067;29;20473;-73
2022/03/28 09:49:55;;;;;;;12.43;9.10;;;8.20;83.10;;;;;;4907136;29;20043;-71
2022/03/28 09:52:23;;;;;;;9.73;8.82;;;8.30;83.10;;;;;;4920626;29;20049;-69
2022/03/28 09:54:59;;;;;;;10.27;9.25;;;8.40;83.10;;;;;;4902219;29;20115;-72
2022/03/28 09:57:28;;;;;;;13.68;9.80;;;8.50;82.90;;;;;;4896825;29;20580;-69
2022/03/28 10:00:10;;;;;;;9.82;8.88;;;8.60;82.90;;;;;;4916376;29;20047;-71
2022/03/28 10:02:36;;;;;;;10.23;9.02;;;8.60;82.70;;;;;;4903952;29;20051;-70
2022/03/28 10:05:02;;;;;;;11.27;8.35;;;8.70;82.70;;;;;;4910113;29;20048;-72
2022/03/28 10:07:30;;;;;;;11.32;9.00;;;8.90;82.60;;;;;;4926358;29;20492;-75
2022/03/28 10:09:57;;;;;;;9.68;8.23;;;9.00;82.40;;;;;;4917380;29;20055;-74
2022/03/28 10:12:23;;;;;;;9.90;8.75;;;9.10;82.20;;;;;;4920731;29;20374;-71
2022/03/28 10:14:53;;;;;;;9.85;8.63;;;9.10;81.90;;;;;;4919597;29;20717;-71
2022/03/28 10:17:19;;;;;;;8.73;7.88;;;9.10;81.60;;;;;;4918935;29;20044;-71
2022/03/28 10:19:46;;;;;;;11.52;8.93;;;9.20;81.60;;;;;;4922322;29;20059;-71
2022/03/28 10:22:17;;;;;;;12.82;9.25;;;9.30;81.60;;;;;;4924540;29;20564;-71
2022/03/28 10:24:45;;;;;;;9.77;8.80;;;9.30;81.30;;;;;;4916946;29;20413;-71
2022/03/28 10:27:12;;;;;;;9.05;8.07;;;9.60;81.30;;;;;;4924578;29;20421;-71
2022/03/28 10:29:42;;;;;;;8.93;8.10;;;9.60;80.80;;;;;;4917493;29;20040;-72
2022/03/28 10:32:09;;;;;;;8.85;7.63;;;9.70;80.40;;;;;;4917552;29;20455;-71
2022/03/28 10:34:49;;;;;;;10.65;9.07;;;9.90;80.30;;;;;;4921676;29;20495;-72
2022/03/28 10:37:31;;;;;;;8.10;6.95;;;9.90;79.90;;;;;;4919469;29;20044;-66
2022/03/28 10:40:24;;;;;;;8.50;5.20;;;10.00;79.70;;;;;;4923322;29;20040;-66
2022/03/28 10:43:06;;;;;;;8.18;7.00;;;10.60;77.80;;;;;;4916930;29;20394;-70
2022/03/28 10:45:33;;;;;;;;;;;11.00;76.60;;;;;;4910886;29;20056;-70
2022/03/28 10:47:59;;;;;;;9.45;7.32;;;10.90;75.30;;;;;;4925107;29;19927;-71
2022/03/28 10:50:24;;;;;;;10.77;7.32;;;10.70;76.50;;;;;;4913494;29;20043;-70
2022/03/28 10:53:03;;;;;;;10.05;7.93;;;10.50;76.40;;;;;;4941464;28;20047;-69
2022/03/28 10:55:37;;;;;;;10.93;8.63;;;10.50;76.60;;;;;;4930443;29;20040;-68
2022/03/28 10:58:30;;;;;;;14.07;9.20;;;10.40;77.00;;;;;;4933367;29;20048;-69
2022/03/28 11:01:07;;;;;;;11.52;9.35;;;10.30;76.40;;;;;;4929609;29;20412;-69
2022/03/28 11:03:40;;;;;;;10.30;8.45;;;10.10;76.60;;;;;;4933294;29;20453;-69
2022/03/28 11:06:06;;;;;;;11.57;9.75;;;9.90;76.90;;;;;;4926719;29;20056;-69
2022/03/28 11:08:38;;;;;;;12.27;9.65;;;9.90;77.30;;;;;;4904331;29;20430;-69
2022/03/28 11:11:17;;;;;;;10.45;9.35;;;9.80;77.60;;;;;;4905718;29;20044;-70
2022/03/28 11:13:55;;;;;;;10.52;9.43;;;9.80;77.70;;;;;;4896230;29;20573;-69
2022/03/28 11:16:58;;;;;;;14.77;10.60;;;9.80;77.80;;;;;;4902269;29;20100;-69
2022/03/28 11:19:24;;;;;;;11.63;10.43;;;9.60;77.70;;;;;;4900512;29;20099;-69
2022/03/28 11:21:57;;;;;;;10.63;9.63;;;9.60;78.10;;;;;;4913111;29;20115;-69
2022/03/28 11:24:47;;;;;;;10.70;9.60;;;9.70;78.30;;;;;;4897922;29;20767;-68
2022/03/28 11:27:15;;;;;;;10.65;9.60;;;9.80;77.90;;;;;;4877955;29;20565;-68
2022/03/28 11:29:42;;;;;;;11.27;9.80;;;9.80;78.20;;;;;;4894279;29;20096;-69
2022/03/28 11:32:09;;;;;;;13.43;9.75;;;9.80;77.90;;;;;;4914145;29;20043;-69
2022/03/28 11:34:35;;;;;;;12.52;10.20;;;9.70;77.80;;;;;;4914049;29;20079;-69
2022/03/28 11:37:02;;;;;;;16.55;10.52;;;9.70;77.70;;;;;;4913062;29;20059;-69
2022/03/28 11:39:31;;;;;;;14.85;10.45;;;9.70;77.80;;;;;;4913721;29;20123;-69
2022/03/28 11:41:57;;;;;;;11.30;9.98;;;9.70;78.10;;;;;;4913434;29;20050;-69
2022/03/28 11:44:24;;;;;;;11.27;10.07;;;9.90;78.10;;;;;;4913610;29;20507;-69
2022/03/28 11:46:54;;;;;;;11.27;9.80;;;10.10;78.10;;;;;;4896227;29;20052;-69
2022/03/28 11:49:21;;;;;;;12.38;10.60;;;10.10;77.80;;;;;;4921884;29;20417;-69
2022/03/28 11:51:48;;;;;;;12.77;11.48;;;10.20;77.80;;;;;;4932235;29;20139;-69
2022/03/28 11:54:18;;;;;;;11.98;10.73;;;10.40;77.70;;;;;;4932328;29;20071;-67
2022/03/28 11:59:41;;;;;;;11.80;10.57;;;10.50;76.80;;;;;;4913008;29;20127;-67
2022/03/28 12:02:08;;;;;;;11.35;10.30;;;10.60;76.70;;;;;;4913254;29;20052;-68
2022/03/28 12:04:42;;;;;;;15.70;13.38;;;10.40;76.60;;;;;;4918331;29;20059;-66
2022/03/28 12:07:08;;;;;;;14.15;12.65;;;10.40;76.50;;;;;;4917061;29;20501;-67
2022/03/28 12:09:35;;;;;;;13.70;12.25;;;10.30;76.40;;;;;;4932194;29;20047;-67
2022/03/28 12:12:01;;;;;;;16.38;13.15;;;10.20;76.50;;;;;;4931809;29;20150;-64
2022/03/28 12:14:29;;;;;;;16.05;14.27;;;10.20;76.70;;;;;;4913996;29;20142;-68
2022/03/28 12:16:57;;;;;;;16.05;14.35;;;10.20;76.80;;;;;;4928150;29;20065;-68
2022/03/28 12:19:24;;;;;;;18.67;14.75;;;10.30;76.90;;;;;;4931252;29;20047;-67
2022/03/28 12:21:52;;;;;;;17.27;14.68;;;10.50;76.70;;;;;;4931750;29;20142;-68
2022/03/28 12:24:20;;;;;;;18.63;15.00;;;10.60;76.80;;;;;;4921520;29;20040;-67
2022/03/28 12:26:48;;;;;;;20.25;15.32;;;10.60;76.70;;;;;;4925607;29;20135;-67
2022/03/28 12:29:15;;;;;;;16.23;14.52;;;10.60;76.20;;;;;;4914890;29;20051;-67
2022/03/28 12:31:46;;;;;;;16.80;14.85;;;10.60;76.20;;;;;;4928300;29;20087;-68
2022/03/28 12:34:13;;;;;;;19.10;15.38;;;10.70;76.10;;;;;;4914080;29;20040;-68
2022/03/28 12:36:39;;;;;;;16.23;14.52;;;10.70;76.10;;;;;;4940347;29;20383;-68
2022/03/28 12:39:07;;;;;;;16.98;14.85;;;10.80;76.20;;;;;;4950805;28;20043;-68
2022/03/28 12:41:40;;;;;;;16.80;13.95;;;11.00;76.10;;;;;;4939079;28;20070;-68
2022/03/28 12:44:11;;;;;;;21.08;15.88;;;11.10;75.90;;;;;;4929396;29;20071;-67
2022/03/28 12:46:36;;;;;;;15.57;14.00;;;11.10;75.80;;;;;;4927884;29;20051;-67
2022/03/28 12:49:08;;;;;;;15.65;13.30;;;11.20;75.60;;;;;;4930363;29;20383;-67
2022/03/28 12:51:35;;;;;;;18.83;14.48;;;11.20;75.30;;;;;;4930462;29;20751;-67
2022/03/28 12:54:04;;;;;;;17.70;13.48;;;11.30;75.40;;;;;;4930524;29;20055;-68
2022/03/28 12:56:48;;;;;;;14.30;12.60;;;11.40;75.30;;;;;;4930165;29;20182;-68